sensor_id;sensor_type;location;lat;lon;timestamp;noise_LAeq;noise_LA_min;noise_LA_max;noise_LA01;noise_LA95
69610;Laerm;76208;51.928;6.584;2024-03-17T00:00:08;33.26;30.15;40.78;;
69610;Laerm;76208;51.928;6.584;2024-03-17T00:00:24;34.70;30.63;38.11;;
69610;Laerm;76208;51.928;6.584;2024-03-17T00:00:34;36.40;33.39;39.55;;
69610;Laerm;76208;51.928;6.584;2024-03-17T00:00:44;39.27;33.71;44.63;;
69610;Laerm;76208;51.928;6.584;2024-03-17T00:00:55;39.41;34.51;44.62;;
69610;Laerm;76208;51.928;6.584;2024-03-17T00:01:05;34.31;31.37;38.12;;
69610;Laerm;76208;51.928;6.584;2024-03-17T00:01:15;34.07;31.89;38.52;;
69610;Laerm;76208;51.928;6.584;2024-03-17T00:01:26;34.57;31.10;39.86;;
69610;Laerm;76208;51.928;6.584;2024-03-17T00:01:37;35.78;32.16;39.59;;
69610;Laerm;76208;51.928;6.584;2024-03-17T00:01:47;33.15;31.20;36.86;;
69610;Laerm;76208;51.928;6.584;2024-03-17T00:01:57;33.42;29.90;39.33;;
69610;Laerm;76208;51.928;6.584;2024-03-17T00:02:08;32.47;30.12;36.64;;
69610;Laerm;76208;51.928;6.584;2024-03-17T00:02:18;34.15;31.45;40.63;;
69610;Laerm;76208;51.928;6.584;2024-03-17T00:02:28;34.21;31.08;42.14;;
69610;Laerm;76208;51.928;6.584;2024-03-17T00:02:38;34.52;30.58;43.92;;
69610;Laerm;76208;51.928;6.584;2024-03-17T00:02:49;33.81;30.12;44.04;;
69610;Laerm;76208;51.928;6.584;2024-03-17T00:02:59;31.12;29.34;34.01;;
69610;Laerm;76208;51.928;6.584;2024-03-17T00:03:09;32.35;30.26;37.83;;
69610;Laerm;76208;51.928;6.584;2024-03-17T00:03:19;32.71;30.15;38.33;;
69610;Laerm;76208;51.928;6.584;2024-03-17T00:03:30;31.49;29.49;35.04;;
69610;Laerm;76208;51.928;6.584;2024-03-17T00:03:40;30.42;28.53;33.35;;
69610;Laerm;76208;51.928;6.584;2024-03-17T00:03:52;30.25;28.86;34.46;;
69610;Laerm;76208;51.928;6.584;2024-03-17T00:04:02;30.61;28.52;34.04;;
69610;Laerm;76208;51.928;6.584;2024-03-17T00:04:13;32.27;29.81;37.29;;
69610;Laerm;76208;51.928;6.584;2024-03-17T00:04:23;31.68;29.60;36.98;;
69610;Laerm;76208;51.928;6.584;2024-03-17T00:04:33;32.04;30.00;40.22;;
69610;Laerm;76208;51.928;6.584;2024-03-17T00:04:44;32.48;29.71;38.15;;
69610;Laerm;76208;51.928;6.584;2024-03-17T00:04:55;32.98;29.93;40.67;;
69610;Laerm;76208;51.928;6.584;2024-03-17T00:05:05;32.96;30.15;39.69;;
69610;Laerm;76208;51.928;6.584;2024-03-17T00:05:16;33.97;30.62;38.54;;
69610;Laerm;76208;51.928;6.584;2024-03-17T00:05:28;32.72;29.68;39.70;;
69610;Laerm;76208;51.928;6.584;2024-03-17T00:05:38;32.73;30.13;37.23;;
69610;Laerm;76208;51.928;6.584;2024-03-17T00:05:54;33.43;30.63;36.95;;
69610;Laerm;76208;51.928;6.584;2024-03-17T00:06:05;32.59;30.05;41.43;;
69610;Laerm;76208;51.928;6.584;2024-03-17T00:06:15;33.90;31.51;35.98;;
69610;Laerm;76208;51.928;6.584;2024-03-17T00:06:25;34.56;31.87;41.33;;
69610;Laerm;76208;51.928;6.584;2024-03-17T00:06:35;33.43;31.27;35.63;;
69610;Laerm;76208;51.928;6.584;2024-03-17T00:06:45;34.22;31.59;42.72;;
69610;Laerm;76208;51.928;6.584;2024-03-17T00:06:56;34.63;31.50;38.07;;
69610;Laerm;76208;51.928;6.584;2024-03-17T00:07:06;36.62;33.43;41.21;;
69610;Laerm;76208;51.928;6.584;2024-03-17T00:07:16;40.49;36.03;44.47;;
69610;Laerm;76208;51.928;6.584;2024-03-17T00:07:26;38.72;34.69;43.11;;
69610;Laerm;76208;51.928;6.584;2024-03-17T00:07:37;37.80;32.72;42.08;;
69610;Laerm;76208;51.928;6.584;2024-03-17T00:07:47;34.91;31.11;37.84;;
69610;Laerm;76208;51.928;6.584;2024-03-17T00:07:58;33.03;30.09;36.15;;
69610;Laerm;76208;51.928;6.584;2024-03-17T00:08:08;31.92;29.13;38.16;;
69610;Laerm;76208;51.928;6.584;2024-03-17T00:08:18;30.64;28.55;35.27;;
69610;Laerm;76208;51.928;6.584;2024-03-17T00:08:30;31.31;28.73;37.98;;
69610;Laerm;76208;51.928;6.584;2024-03-17T00:08:40;32.22;29.00;43.59;;
69610;Laerm;76208;51.928;6.584;2024-03-17T00:08:50;30.26;28.27;36.63;;
69610;Laerm;76208;51.928;6.584;2024-03-17T00:09:00;36.56;28.89;49.06;;
69610;Laerm;76208;51.928;6.584;2024-03-17T00:09:16;30.49;28.42;37.60;;
69610;Laerm;76208;51.928;6.584;2024-03-17T00:09:26;30.90;28.67;39.74;;
69610;Laerm;76208;51.928;6.584;2024-03-17T00:09:36;31.85;28.83;40.54;;
69610;Laerm;76208;51.928;6.584;2024-03-17T00:09:46;36.73;31.99;44.50;;
69610;Laerm;76208;51.928;6.584;2024-03-17T00:09:57;37.13;31.47;42.41;;
69610;Laerm;76208;51.928;6.584;2024-03-17T00:10:07;31.69;28.87;39.19;;
69610;Laerm;76208;51.928;6.584;2024-03-17T00:10:17;31.71;29.11;39.36;;
69610;Laerm;76208;51.928;6.584;2024-03-17T00:10:27;30.75;28.91;35.13;;
69610;Laerm;76208;51.928;6.584;2024-03-17T00:10:38;31.47;28.53;35.95;;
69610;Laerm;76208;51.928;6.584;2024-03-17T00:10:51;30.61;28.75;35.15;;
69610;Laerm;76208;51.928;6.584;2024-03-17T00:11:01;35.77;28.88;53.28;;
69610;Laerm;76208;51.928;6.584;2024-03-17T00:11:11;32.32;28.99;38.47;;
69610;Laerm;76208;51.928;6.584;2024-03-17T00:11:22;32.16;29.01;35.42;;
69610;Laerm;76208;51.928;6.584;2024-03-17T00:11:32;30.52;28.57;33.62;;
69610;Laerm;76208;51.928;6.584;2024-03-17T00:11:43;31.41;29.29;35.00;;
69610;Laerm;76208;51.928;6.584;2024-03-17T00:11:54;31.63;29.42;35.81;;
69610;Laerm;76208;51.928;6.584;2024-03-17T00:12:05;31.13;29.07;34.31;;
69610;Laerm;76208;51.928;6.584;2024-03-17T00:12:16;31.17;29.19;34.11;;
69610;Laerm;76208;51.928;6.584;2024-03-17T00:12:26;31.06;29.20;36.05;;
69610;Laerm;76208;51.928;6.584;2024-03-17T00:12:37;34.04;30.24;39.77;;
69610;Laerm;76208;51.928;6.584;2024-03-17T00:12:47;31.97;29.25;37.27;;
69610;Laerm;76208;51.928;6.584;2024-03-17T00:12:57;31.66;29.05;37.27;;
69610;Laerm;76208;51.928;6.584;2024-03-17T00:13:08;32.24;29.91;37.38;;
69610;Laerm;76208;51.928;6.584;2024-03-17T00:13:18;34.14;30.32;37.38;;
69610;Laerm;76208;51.928;6.584;2024-03-17T00:13:29;31.94;29.59;39.18;;
69610;Laerm;76208;51.928;6.584;2024-03-17T00:13:39;30.44;28.84;35.72;;
69610;Laerm;76208;51.928;6.584;2024-03-17T00:13:49;32.44;29.68;35.58;;
69610;Laerm;76208;51.928;6.584;2024-03-17T00:13:59;32.78;29.39;44.72;;
69610;Laerm;76208;51.928;6.584;2024-03-17T00:14:10;32.09;29.09;42.75;;
69610;Laerm;76208;51.928;6.584;2024-03-17T00:14:20;30.10;28.66;32.96;;
69610;Laerm;76208;51.928;6.584;2024-03-17T00:14:30;31.38;28.67;35.66;;
69610;Laerm;76208;51.928;6.584;2024-03-17T00:14:40;32.53;29.01;37.10;;
69610;Laerm;76208;51.928;6.584;2024-03-17T00:14:52;33.76;30.36;37.53;;
69610;Laerm;76208;51.928;6.584;2024-03-17T00:15:04;32.46;29.28;47.41;;
69610;Laerm;76208;51.928;6.584;2024-03-17T00:15:14;30.69;29.00;33.37;;
69610;Laerm;76208;51.928;6.584;2024-03-17T00:15:24;31.62;29.86;33.44;;
69610;Laerm;76208;51.928;6.584;2024-03-17T00:15:35;33.29;30.19;40.87;;
69610;Laerm;76208;51.928;6.584;2024-03-17T00:15:45;32.55;30.43;37.43;;
69610;Laerm;76208;51.928;6.584;2024-03-17T00:15:55;31.81;29.90;33.28;;
69610;Laerm;76208;51.928;6.584;2024-03-17T00:16:05;31.70;30.28;33.49;;
69610;Laerm;76208;51.928;6.584;2024-03-17T00:16:16;32.12;30.50;33.85;;
69610;Laerm;76208;51.928;6.584;2024-03-17T00:16:28;33.00;31.10;35.69;;
69610;Laerm;76208;51.928;6.584;2024-03-17T00:16:39;34.16;32.02;35.94;;
69610;Laerm;76208;51.928;6.584;2024-03-17T00:16:49;34.87;33.07;37.16;;
69610;Laerm;76208;51.928;6.584;2024-03-17T00:17:00;35.95;33.49;38.06;;
69610;Laerm;76208;51.928;6.584;2024-03-17T00:17:10;35.16;32.70;39.21;;
69610;Laerm;76208;51.928;6.584;2024-03-17T00:17:20;35.63;33.44;38.04;;
69610;Laerm;76208;51.928;6.584;2024-03-17T00:17:31;35.46;32.46;37.74;;
69610;Laerm;76208;51.928;6.584;2024-03-17T00:17:41;36.61;33.33;39.16;;
69610;Laerm;76208;51.928;6.584;2024-03-17T00:17:51;35.06;32.31;38.91;;
69610;Laerm;76208;51.928;6.584;2024-03-17T00:18:01;34.54;31.92;37.31;;
69610;Laerm;76208;51.928;6.584;2024-03-17T00:18:12;34.05;31.71;36.62;;
69610;Laerm;76208;51.928;6.584;2024-03-17T00:18:22;33.75;31.64;37.92;;
69610;Laerm;76208;51.928;6.584;2024-03-17T00:18:32;32.99;31.33;34.68;;
69610;Laerm;76208;51.928;6.584;2024-03-17T00:18:42;33.34;31.68;35.11;;
69610;Laerm;76208;51.928;6.584;2024-03-17T00:18:53;34.22;32.36;41.38;;
69610;Laerm;76208;51.928;6.584;2024-03-17T00:19:03;33.17;31.37;35.59;;
69610;Laerm;76208;51.928;6.584;2024-03-17T00:19:13;32.60;31.10;34.83;;
69610;Laerm;76208;51.928;6.584;2024-03-17T00:19:24;32.68;30.73;37.78;;
69610;Laerm;76208;51.928;6.584;2024-03-17T00:19:34;32.27;30.96;35.00;;
69610;Laerm;76208;51.928;6.584;2024-03-17T00:19:44;33.16;30.34;35.80;;
69610;Laerm;76208;51.928;6.584;2024-03-17T00:19:54;34.24;31.65;38.98;;
69610;Laerm;76208;51.928;6.584;2024-03-17T00:20:05;32.76;30.73;34.92;;
69610;Laerm;76208;51.928;6.584;2024-03-17T00:20:21;32.31;30.78;35.52;;
69610;Laerm;76208;51.928;6.584;2024-03-17T00:20:31;33.07;31.02;35.44;;
69610;Laerm;76208;51.928;6.584;2024-03-17T00:20:42;34.39;32.41;37.55;;
69610;Laerm;76208;51.928;6.584;2024-03-17T00:20:52;34.11;31.67;36.54;;
69610;Laerm;76208;51.928;6.584;2024-03-17T00:21:04;32.50;30.98;34.28;;
69610;Laerm;76208;51.928;6.584;2024-03-17T00:21:14;33.59;30.74;40.41;;
69610;Laerm;76208;51.928;6.584;2024-03-17T00:21:24;32.37;30.34;36.41;;
69610;Laerm;76208;51.928;6.584;2024-03-17T00:21:36;38.02;31.32;46.55;;
69610;Laerm;76208;51.928;6.584;2024-03-17T00:21:46;32.81;30.65;37.61;;
69610;Laerm;76208;51.928;6.584;2024-03-17T00:21:56;32.16;29.85;41.25;;
69610;Laerm;76208;51.928;6.584;2024-03-17T00:22:06;32.05;30.36;39.69;;
69610;Laerm;76208;51.928;6.584;2024-03-17T00:22:19;32.49;30.51;34.64;;
69610;Laerm;76208;51.928;6.584;2024-03-17T00:22:30;32.51;29.70;40.22;;
69610;Laerm;76208;51.928;6.584;2024-03-17T00:22:40;31.42;29.91;32.77;;
69610;Laerm;76208;51.928;6.584;2024-03-17T00:22:50;31.76;30.33;33.39;;
69610;Laerm;76208;51.928;6.584;2024-03-17T00:23:03;32.24;30.60;35.03;;
69610;Laerm;76208;51.928;6.584;2024-03-17T00:23:16;32.45;30.81;35.49;;
69610;Laerm;76208;51.928;6.584;2024-03-17T00:23:26;37.30;31.29;46.21;;
69610;Laerm;76208;51.928;6.584;2024-03-17T00:23:38;34.94;31.15;41.28;;
69610;Laerm;76208;51.928;6.584;2024-03-17T00:23:48;34.56;31.75;39.59;;
69610;Laerm;76208;51.928;6.584;2024-03-17T00:24:01;33.92;30.86;38.40;;
69610;Laerm;76208;51.928;6.584;2024-03-17T00:24:12;34.34;30.40;38.32;;
69610;Laerm;76208;51.928;6.584;2024-03-17T00:24:23;32.89;31.27;35.30;;
69610;Laerm;76208;51.928;6.584;2024-03-17T00:24:34;32.98;30.89;36.70;;
69610;Laerm;76208;51.928;6.584;2024-03-17T00:24:45;32.76;30.28;43.80;;
69610;Laerm;76208;51.928;6.584;2024-03-17T00:24:55;31.75;29.99;34.08;;
69610;Laerm;76208;51.928;6.584;2024-03-17T00:25:06;32.35;30.13;34.78;;
69610;Laerm;76208;51.928;6.584;2024-03-17T00:25:17;32.03;30.09;33.60;;
69610;Laerm;76208;51.928;6.584;2024-03-17T00:25:27;31.98;30.35;35.26;;
69610;Laerm;76208;51.928;6.584;2024-03-17T00:25:38;32.93;31.00;36.95;;
69610;Laerm;76208;51.928;6.584;2024-03-17T00:25:48;32.81;30.87;34.75;;
69610;Laerm;76208;51.928;6.584;2024-03-17T00:26:01;33.01;30.56;37.42;;
69610;Laerm;76208;51.928;6.584;2024-03-17T00:26:11;33.21;31.06;36.87;;
69610;Laerm;76208;51.928;6.584;2024-03-17T00:26:21;33.95;30.70;40.59;;
69610;Laerm;76208;51.928;6.584;2024-03-17T00:26:32;33.34;31.77;35.26;;
69610;Laerm;76208;51.928;6.584;2024-03-17T00:26:44;35.11;31.98;48.05;;
69610;Laerm;76208;51.928;6.584;2024-03-17T00:26:54;35.12;33.06;37.25;;
69610;Laerm;76208;51.928;6.584;2024-03-17T00:27:05;34.89;32.32;36.84;;
69610;Laerm;76208;51.928;6.584;2024-03-17T00:27:15;36.38;33.35;42.22;;
69610;Laerm;76208;51.928;6.584;2024-03-17T00:27:25;39.73;34.20;46.61;;
69610;Laerm;76208;51.928;6.584;2024-03-17T00:27:35;35.15;33.20;37.22;;
69610;Laerm;76208;51.928;6.584;2024-03-17T00:27:49;36.43;32.67;43.02;;
69610;Laerm;76208;51.928;6.584;2024-03-17T00:28:04;37.42;31.56;51.64;;
69610;Laerm;76208;51.928;6.584;2024-03-17T00:28:14;34.05;31.96;40.33;;
69610;Laerm;76208;51.928;6.584;2024-03-17T00:28:24;45.89;32.34;61.73;;
69610;Laerm;76208;51.928;6.584;2024-03-17T00:28:35;48.62;31.95;65.95;;
69610;Laerm;76208;51.928;6.584;2024-03-17T00:28:45;33.35;30.49;39.78;;
69610;Laerm;76208;51.928;6.584;2024-03-17T00:28:58;32.89;30.66;39.73;;
69610;Laerm;76208;51.928;6.584;2024-03-17T00:29:08;36.54;31.36;52.87;;
69610;Laerm;76208;51.928;6.584;2024-03-17T00:29:18;33.91;31.73;43.29;;
69610;Laerm;76208;51.928;6.584;2024-03-17T00:29:28;33.43;31.40;38.67;;
69610;Laerm;76208;51.928;6.584;2024-03-17T00:29:39;33.64;31.75;37.18;;
69610;Laerm;76208;51.928;6.584;2024-03-17T00:29:49;33.86;32.18;38.09;;
69610;Laerm;76208;51.928;6.584;2024-03-17T00:29:59;33.89;31.87;35.95;;
69610;Laerm;76208;51.928;6.584;2024-03-17T00:30:10;45.95;32.06;58.14;;
69610;Laerm;76208;51.928;6.584;2024-03-17T00:30:22;35.16;32.95;37.41;;
69610;Laerm;76208;51.928;6.584;2024-03-17T00:30:32;35.22;32.94;37.99;;
69610;Laerm;76208;51.928;6.584;2024-03-17T00:30:43;34.76;32.55;39.80;;
69610;Laerm;76208;51.928;6.584;2024-03-17T00:30:53;34.81;32.47;38.25;;
69610;Laerm;76208;51.928;6.584;2024-03-17T00:31:04;34.33;31.65;40.47;;
69610;Laerm;76208;51.928;6.584;2024-03-17T00:31:14;34.05;31.39;39.85;;
69610;Laerm;76208;51.928;6.584;2024-03-17T00:31:27;39.86;32.16;55.74;;
69610;Laerm;76208;51.928;6.584;2024-03-17T00:31:37;37.79;32.24;57.12;;
69610;Laerm;76208;51.928;6.584;2024-03-17T00:31:47;38.13;32.09;57.73;;
69610;Laerm;76208;51.928;6.584;2024-03-17T00:31:58;46.52;32.04;67.96;;
69610;Laerm;76208;51.928;6.584;2024-03-17T00:32:08;34.10;31.49;46.51;;
69610;Laerm;76208;51.928;6.584;2024-03-17T00:32:20;45.63;31.52;67.55;;
69610;Laerm;76208;51.928;6.584;2024-03-17T00:32:30;33.11;30.18;37.04;;
69610;Laerm;76208;51.928;6.584;2024-03-17T00:32:41;33.17;29.79;49.91;;
69610;Laerm;76208;51.928;6.584;2024-03-17T00:32:52;32.58;29.91;43.62;;
69610;Laerm;76208;51.928;6.584;2024-03-17T00:33:02;32.21;29.86;41.43;;
69610;Laerm;76208;51.928;6.584;2024-03-17T00:33:13;37.62;29.99;59.61;;
69610;Laerm;76208;51.928;6.584;2024-03-17T00:33:24;36.13;29.59;58.37;;
69610;Laerm;76208;51.928;6.584;2024-03-17T00:33:34;31.59;29.72;36.33;;
69610;Laerm;76208;51.928;6.584;2024-03-17T00:33:44;34.91;29.96;44.48;;
69610;Laerm;76208;51.928;6.584;2024-03-17T00:33:55;34.02;30.63;43.26;;
69610;Laerm;76208;51.928;6.584;2024-03-17T00:34:05;31.52;29.96;33.53;;
69610;Laerm;76208;51.928;6.584;2024-03-17T00:34:15;31.34;30.05;32.84;;
69610;Laerm;76208;51.928;6.584;2024-03-17T00:34:25;31.64;30.09;33.48;;
69610;Laerm;76208;51.928;6.584;2024-03-17T00:34:35;35.90;30.49;50.39;;
69610;Laerm;76208;51.928;6.584;2024-03-17T00:34:46;32.48;30.85;37.15;;
69610;Laerm;76208;51.928;6.584;2024-03-17T00:34:56;32.41;30.55;36.32;;
69610;Laerm;76208;51.928;6.584;2024-03-17T00:35:07;32.02;29.91;37.35;;
69610;Laerm;76208;51.928;6.584;2024-03-17T00:35:18;31.42;30.06;33.12;;
69610;Laerm;76208;51.928;6.584;2024-03-17T00:35:31;31.99;30.13;34.33;;
69610;Laerm;76208;51.928;6.584;2024-03-17T00:35:41;31.95;30.12;33.64;;
69610;Laerm;76208;51.928;6.584;2024-03-17T00:35:51;31.87;29.91;33.52;;
69610;Laerm;76208;51.928;6.584;2024-03-17T00:36:02;31.82;29.98;33.67;;
69610;Laerm;76208;51.928;6.584;2024-03-17T00:36:12;32.08;30.24;34.39;;
69610;Laerm;76208;51.928;6.584;2024-03-17T00:36:22;32.67;30.28;36.71;;
69610;Laerm;76208;51.928;6.584;2024-03-17T00:36:32;33.06;31.04;34.85;;
69610;Laerm;76208;51.928;6.584;2024-03-17T00:36:42;33.48;31.50;37.12;;
69610;Laerm;76208;51.928;6.584;2024-03-17T00:36:53;35.29;33.34;38.11;;
69610;Laerm;76208;51.928;6.584;2024-03-17T00:37:03;35.92;33.71;39.25;;
69610;Laerm;76208;51.928;6.584;2024-03-17T00:37:13;37.21;33.59;41.08;;
69610;Laerm;76208;51.928;6.584;2024-03-17T00:37:23;38.30;34.84;42.03;;
69610;Laerm;76208;51.928;6.584;2024-03-17T00:37:34;41.49;34.10;47.08;;
69610;Laerm;76208;51.928;6.584;2024-03-17T00:37:44;39.19;34.99;44.70;;
69610;Laerm;76208;51.928;6.584;2024-03-17T00:37:54;36.19;32.54;45.45;;
69610;Laerm;76208;51.928;6.584;2024-03-17T00:38:04;34.80;31.89;40.89;;
69610;Laerm;76208;51.928;6.584;2024-03-17T00:38:20;34.63;32.49;36.33;;
69610;Laerm;76208;51.928;6.584;2024-03-17T00:38:30;33.61;31.76;35.28;;
69610;Laerm;76208;51.928;6.584;2024-03-17T00:38:40;34.81;32.36;37.25;;
69610;Laerm;76208;51.928;6.584;2024-03-17T00:38:50;34.52;32.14;37.44;;
69610;Laerm;76208;51.928;6.584;2024-03-17T00:39:02;33.44;31.50;36.32;;
69610;Laerm;76208;51.928;6.584;2024-03-17T00:39:13;33.47;31.57;35.91;;
69610;Laerm;76208;51.928;6.584;2024-03-17T00:39:24;33.29;31.32;35.08;;
69610;Laerm;76208;51.928;6.584;2024-03-17T00:39:35;33.64;31.67;36.61;;
69610;Laerm;76208;51.928;6.584;2024-03-17T00:39:45;33.80;31.46;36.64;;
69610;Laerm;76208;51.928;6.584;2024-03-17T00:39:56;33.59;31.33;36.26;;
69610;Laerm;76208;51.928;6.584;2024-03-17T00:40:06;33.61;31.94;40.13;;
69610;Laerm;76208;51.928;6.584;2024-03-17T00:40:19;34.14;32.43;35.91;;
69610;Laerm;76208;51.928;6.584;2024-03-17T00:40:30;35.54;33.30;38.30;;
69610;Laerm;76208;51.928;6.584;2024-03-17T00:40:40;36.30;33.83;41.78;;
69610;Laerm;76208;51.928;6.584;2024-03-17T00:40:55;47.33;37.69;53.76;;
69610;Laerm;76208;51.928;6.584;2024-03-17T00:41:05;38.67;32.49;46.46;;
69610;Laerm;76208;51.928;6.584;2024-03-17T00:41:16;34.20;31.94;37.15;;
69610;Laerm;76208;51.928;6.584;2024-03-17T00:41:26;33.32;31.73;34.91;;
69610;Laerm;76208;51.928;6.584;2024-03-17T00:41:37;33.04;30.67;34.71;;
69610;Laerm;76208;51.928;6.584;2024-03-17T00:41:47;32.78;30.96;34.27;;
69610;Laerm;76208;51.928;6.584;2024-03-17T00:41:57;32.77;31.24;34.42;;
69610;Laerm;76208;51.928;6.584;2024-03-17T00:42:07;33.57;31.23;36.40;;
69610;Laerm;76208;51.928;6.584;2024-03-17T00:42:17;34.53;32.05;36.91;;
69610;Laerm;76208;51.928;6.584;2024-03-17T00:42:28;35.46;33.43;38.92;;
69610;Laerm;76208;51.928;6.584;2024-03-17T00:42:38;35.41;33.04;38.29;;
69610;Laerm;76208;51.928;6.584;2024-03-17T00:42:48;36.05;33.63;38.64;;
69610;Laerm;76208;51.928;6.584;2024-03-17T00:42:59;36.79;34.59;39.90;;
69610;Laerm;76208;51.928;6.584;2024-03-17T00:43:09;35.79;33.68;37.74;;
69610;Laerm;76208;51.928;6.584;2024-03-17T00:43:21;35.64;34.07;37.75;;
69610;Laerm;76208;51.928;6.584;2024-03-17T00:43:31;35.69;33.94;37.36;;
69610;Laerm;76208;51.928;6.584;2024-03-17T00:43:41;34.78;32.66;36.75;;
69610;Laerm;76208;51.928;6.584;2024-03-17T00:43:52;34.15;32.32;35.95;;
69610;Laerm;76208;51.928;6.584;2024-03-17T00:44:02;35.76;33.28;37.64;;
69610;Laerm;76208;51.928;6.584;2024-03-17T00:44:13;35.12;33.24;37.34;;
69610;Laerm;76208;51.928;6.584;2024-03-17T00:44:23;35.02;33.53;36.93;;
69610;Laerm;76208;51.928;6.584;2024-03-17T00:44:33;34.88;33.35;37.39;;
69610;Laerm;76208;51.928;6.584;2024-03-17T00:44:43;35.61;33.77;37.70;;
69610;Laerm;76208;51.928;6.584;2024-03-17T00:44:54;35.26;33.46;37.49;;
69610;Laerm;76208;51.928;6.584;2024-03-17T00:45:04;34.35;32.29;36.34;;
69610;Laerm;76208;51.928;6.584;2024-03-17T00:45:16;33.51;31.74;35.23;;
69610;Laerm;76208;51.928;6.584;2024-03-17T00:45:26;51.94;32.18;70.66;;
69610;Laerm;76208;51.928;6.584;2024-03-17T00:45:37;33.59;31.91;35.73;;
69610;Laerm;76208;51.928;6.584;2024-03-17T00:45:53;34.36;32.12;37.39;;
69610;Laerm;76208;51.928;6.584;2024-03-17T00:46:03;34.52;32.42;36.37;;
69610;Laerm;76208;51.928;6.584;2024-03-17T00:46:13;33.63;31.59;36.04;;
69610;Laerm;76208;51.928;6.584;2024-03-17T00:46:24;35.06;33.18;37.18;;
69610;Laerm;76208;51.928;6.584;2024-03-17T00:46:34;39.87;33.24;61.62;;
69610;Laerm;76208;51.928;6.584;2024-03-17T00:46:45;52.05;33.37;71.09;;
69610;Laerm;76208;51.928;6.584;2024-03-17T00:46:55;36.53;33.76;41.61;;
69610;Laerm;76208;51.928;6.584;2024-03-17T00:47:05;37.36;34.12;42.33;;
69610;Laerm;76208;51.928;6.584;2024-03-17T00:47:15;36.01;33.67;38.36;;
69610;Laerm;76208;51.928;6.584;2024-03-17T00:47:25;35.98;33.22;38.58;;
69610;Laerm;76208;51.928;6.584;2024-03-17T00:47:36;35.36;33.22;38.04;;
69610;Laerm;76208;51.928;6.584;2024-03-17T00:47:46;35.36;33.23;38.96;;
69610;Laerm;76208;51.928;6.584;2024-03-17T00:47:56;34.40;31.84;36.61;;
69610;Laerm;76208;51.928;6.584;2024-03-17T00:48:07;34.26;32.26;38.37;;
69610;Laerm;76208;51.928;6.584;2024-03-17T00:48:17;34.96;31.76;44.08;;
69610;Laerm;76208;51.928;6.584;2024-03-17T00:48:27;33.23;31.46;35.94;;
69610;Laerm;76208;51.928;6.584;2024-03-17T00:48:37;33.37;31.31;35.10;;
69610;Laerm;76208;51.928;6.584;2024-03-17T00:48:48;33.52;31.46;35.31;;
69610;Laerm;76208;51.928;6.584;2024-03-17T00:48:59;33.04;31.39;34.99;;
69610;Laerm;76208;51.928;6.584;2024-03-17T00:49:12;33.64;31.63;37.30;;
69610;Laerm;76208;51.928;6.584;2024-03-17T00:49:23;33.80;32.10;35.38;;
69610;Laerm;76208;51.928;6.584;2024-03-17T00:49:33;33.90;32.00;37.35;;
69610;Laerm;76208;51.928;6.584;2024-03-17T00:49:43;33.28;31.14;35.65;;
69610;Laerm;76208;51.928;6.584;2024-03-17T00:49:53;34.32;32.70;36.12;;
69610;Laerm;76208;51.928;6.584;2024-03-17T00:50:04;34.04;32.11;36.32;;
69610;Laerm;76208;51.928;6.584;2024-03-17T00:50:15;32.94;30.92;35.13;;
69610;Laerm;76208;51.928;6.584;2024-03-17T00:50:25;32.66;30.76;34.27;;
69610;Laerm;76208;51.928;6.584;2024-03-17T00:50:35;33.93;31.99;42.28;;
69610;Laerm;76208;51.928;6.584;2024-03-17T00:50:46;52.96;32.01;71.50;;
69610;Laerm;76208;51.928;6.584;2024-03-17T00:50:56;34.02;32.36;36.73;;
69610;Laerm;76208;51.928;6.584;2024-03-17T00:51:07;33.81;31.86;35.81;;
69610;Laerm;76208;51.928;6.584;2024-03-17T00:51:17;34.57;32.80;36.54;;
69610;Laerm;76208;51.928;6.584;2024-03-17T00:51:27;34.63;32.61;36.96;;
69610;Laerm;76208;51.928;6.584;2024-03-17T00:51:37;35.42;33.43;38.22;;
69610;Laerm;76208;51.928;6.584;2024-03-17T00:51:47;34.58;32.76;41.49;;
69610;Laerm;76208;51.928;6.584;2024-03-17T00:52:00;36.98;32.62;58.51;;
69610;Laerm;76208;51.928;6.584;2024-03-17T00:52:10;34.75;32.71;37.10;;
69610;Laerm;76208;51.928;6.584;2024-03-17T00:52:20;33.43;31.77;35.79;;
69610;Laerm;76208;51.928;6.584;2024-03-17T00:52:30;33.41;31.67;36.21;;
69610;Laerm;76208;51.928;6.584;2024-03-17T00:52:41;33.64;32.17;35.42;;
69610;Laerm;76208;51.928;6.584;2024-03-17T00:52:51;34.18;32.44;35.58;;
69610;Laerm;76208;51.928;6.584;2024-03-17T00:53:01;33.95;32.43;35.87;;
69610;Laerm;76208;51.928;6.584;2024-03-17T00:53:13;33.85;31.69;36.61;;
69610;Laerm;76208;51.928;6.584;2024-03-17T00:53:24;35.73;32.76;39.23;;
69610;Laerm;76208;51.928;6.584;2024-03-17T00:53:34;33.22;30.86;36.15;;
69610;Laerm;76208;51.928;6.584;2024-03-17T00:53:45;33.52;31.66;35.85;;
69610;Laerm;76208;51.928;6.584;2024-03-17T00:53:55;34.77;32.88;36.53;;
69610;Laerm;76208;51.928;6.584;2024-03-17T00:54:06;34.03;32.55;35.73;;
69610;Laerm;76208;51.928;6.584;2024-03-17T00:54:17;34.05;31.93;43.91;;
69610;Laerm;76208;51.928;6.584;2024-03-17T00:54:28;33.14;31.22;35.49;;
69610;Laerm;76208;51.928;6.584;2024-03-17T00:54:38;33.50;31.21;35.83;;
69610;Laerm;76208;51.928;6.584;2024-03-17T00:54:49;35.74;32.31;46.42;;
69610;Laerm;76208;51.928;6.584;2024-03-17T00:55:00;33.81;32.17;35.89;;
69610;Laerm;76208;51.928;6.584;2024-03-17T00:55:10;33.51;32.03;35.16;;
69610;Laerm;76208;51.928;6.584;2024-03-17T00:55:21;32.70;30.61;35.01;;
69610;Laerm;76208;51.928;6.584;2024-03-17T00:55:31;33.08;31.48;35.33;;
69610;Laerm;76208;51.928;6.584;2024-03-17T00:55:42;33.27;31.23;35.26;;
69610;Laerm;76208;51.928;6.584;2024-03-17T00:55:53;33.71;31.47;35.51;;
69610;Laerm;76208;51.928;6.584;2024-03-17T00:56:03;33.95;32.09;35.76;;
69610;Laerm;76208;51.928;6.584;2024-03-17T00:56:13;34.64;32.91;37.67;;
69610;Laerm;76208;51.928;6.584;2024-03-17T00:56:24;34.90;32.85;37.90;;
69610;Laerm;76208;51.928;6.584;2024-03-17T00:56:34;35.36;33.10;37.22;;
69610;Laerm;76208;51.928;6.584;2024-03-17T00:56:44;35.65;33.88;37.61;;
69610;Laerm;76208;51.928;6.584;2024-03-17T00:56:54;35.38;33.54;37.23;;
69610;Laerm;76208;51.928;6.584;2024-03-17T00:57:05;35.69;33.93;37.37;;
69610;Laerm;76208;51.928;6.584;2024-03-17T00:57:15;36.09;34.15;39.97;;
69610;Laerm;76208;51.928;6.584;2024-03-17T00:57:28;35.95;32.98;38.91;;
69610;Laerm;76208;51.928;6.584;2024-03-17T00:57:39;37.13;33.50;42.31;;
69610;Laerm;76208;51.928;6.584;2024-03-17T00:57:49;38.17;33.47;44.27;;
69610;Laerm;76208;51.928;6.584;2024-03-17T00:57:59;39.82;32.07;47.00;;
69610;Laerm;76208;51.928;6.584;2024-03-17T00:58:09;38.76;32.69;46.63;;
69610;Laerm;76208;51.928;6.584;2024-03-17T00:58:20;38.57;32.23;45.47;;
69610;Laerm;76208;51.928;6.584;2024-03-17T00:58:31;35.35;31.54;40.85;;
69610;Laerm;76208;51.928;6.584;2024-03-17T00:58:41;34.88;32.30;38.22;;
69610;Laerm;76208;51.928;6.584;2024-03-17T00:58:51;33.31;31.53;36.38;;
69610;Laerm;76208;51.928;6.584;2024-03-17T00:59:02;33.66;31.73;35.69;;
69610;Laerm;76208;51.928;6.584;2024-03-17T00:59:12;34.03;32.09;36.42;;
69610;Laerm;76208;51.928;6.584;2024-03-17T00:59:23;34.27;32.01;36.55;;
69610;Laerm;76208;51.928;6.584;2024-03-17T00:59:33;34.09;32.10;37.46;;
69610;Laerm;76208;51.928;6.584;2024-03-17T00:59:43;33.60;31.92;36.71;;